sensor_id;sensor_type;location;lat;lon;timestamp;P1;durP1;ratioP1;P2;durP2;ratioP2
67749;SDS011;54550;48.838;8.828;2023-05-07T00:00:18;5.57;;;4.20;;
67749;SDS011;54550;48.838;8.828;2023-05-07T00:02:44;7.03;;;4.13;;
67749;SDS011;54550;48.838;8.828;2023-05-07T00:05:10;7.70;;;4.07;;
67749;SDS011;54550;48.838;8.828;2023-05-07T00:07:36;5.37;;;4.17;;
67749;SDS011;54550;48.838;8.828;2023-05-07T00:10:02;8.40;;;3.90;;
67749;SDS011;54550;48.838;8.828;2023-05-07T00:12:28;5.70;;;3.70;;
67749;SDS011;54550;48.838;8.828;2023-05-07T00:14:58;6.67;;;4.30;;
67749;SDS011;54550;48.838;8.828;2023-05-07T00:17:24;7.30;;;3.00;;
67749;SDS011;54550;48.838;8.828;2023-05-07T00:19:50;5.10;;;3.67;;
67749;SDS011;54550;48.838;8.828;2023-05-07T00:22:15;6.20;;;4.67;;
67749;SDS011;54550;48.838;8.828;2023-05-07T00:24:41;5.03;;;4.30;;
67749;SDS011;54550;48.838;8.828;2023-05-07T00:27:07;9.27;;;5.50;;
67749;SDS011;54550;48.838;8.828;2023-05-07T00:29:32;6.13;;;4.40;;
67749;SDS011;54550;48.838;8.828;2023-05-07T00:31:58;10.20;;;4.37;;
67749;SDS011;54550;48.838;8.828;2023-05-07T00:34:24;7.23;;;4.83;;
67749;SDS011;54550;48.838;8.828;2023-05-07T00:36:49;9.73;;;5.23;;
67749;SDS011;54550;48.838;8.828;2023-05-07T00:39:15;10.50;;;4.90;;
67749;SDS011;54550;48.838;8.828;2023-05-07T00:41:40;5.53;;;3.93;;
67749;SDS011;54550;48.838;8.828;2023-05-07T00:44:06;7.20;;;4.77;;
67749;SDS011;54550;48.838;8.828;2023-05-07T00:46:31;5.50;;;4.50;;
67749;SDS011;54550;48.838;8.828;2023-05-07T00:48:58;7.17;;;4.90;;
67749;SDS011;54550;48.838;8.828;2023-05-07T00:51:25;7.33;;;5.27;;
67749;SDS011;54550;48.838;8.828;2023-05-07T00:53:52;7.83;;;5.07;;
67749;SDS011;54550;48.838;8.828;2023-05-07T00:56:19;8.20;;;4.60;;
67749;SDS011;54550;48.838;8.828;2023-05-07T00:58:48;5.27;;;4.67;;
67749;SDS011;54550;48.838;8.828;2023-05-07T01:01:14;10.60;;;5.20;;
67749;SDS011;54550;48.838;8.828;2023-05-07T01:03:41;5.87;;;4.93;;
67749;SDS011;54550;48.838;8.828;2023-05-07T01:06:07;7.57;;;6.07;;
67749;SDS011;54550;48.838;8.828;2023-05-07T01:08:33;8.17;;;6.10;;
67749;SDS011;54550;48.838;8.828;2023-05-07T01:11:00;10.63;;;6.27;;
67749;SDS011;54550;48.838;8.828;2023-05-07T01:13:26;10.93;;;5.80;;
67749;SDS011;54550;48.838;8.828;2023-05-07T01:15:52;9.70;;;6.20;;
67749;SDS011;54550;48.838;8.828;2023-05-07T01:18:18;10.07;;;6.40;;
67749;SDS011;54550;48.838;8.828;2023-05-07T01:20:44;8.33;;;6.80;;
67749;SDS011;54550;48.838;8.828;2023-05-07T01:23:10;6.77;;;5.60;;
67749;SDS011;54550;48.838;8.828;2023-05-07T01:25:36;8.03;;;6.80;;
67749;SDS011;54550;48.838;8.828;2023-05-07T01:28:02;9.87;;;6.00;;
67749;SDS011;54550;48.838;8.828;2023-05-07T01:30:28;8.30;;;5.80;;
67749;SDS011;54550;48.838;8.828;2023-05-07T01:33:08;13.23;;;6.70;;
67749;SDS011;54550;48.838;8.828;2023-05-07T01:35:37;8.40;;;6.00;;
67749;SDS011;54550;48.838;8.828;2023-05-07T01:38:05;8.30;;;6.40;;
67749;SDS011;54550;48.838;8.828;2023-05-07T01:40:31;10.50;;;6.30;;
67749;SDS011;54550;48.838;8.828;2023-05-07T01:42:59;9.37;;;6.67;;
67749;SDS011;54550;48.838;8.828;2023-05-07T01:45:25;7.57;;;6.10;;
67749;SDS011;54550;48.838;8.828;2023-05-07T01:47:51;21.20;;;7.80;;
67749;SDS011;54550;48.838;8.828;2023-05-07T01:50:18;20.67;;;6.77;;
67749;SDS011;54550;48.838;8.828;2023-05-07T01:52:45;6.70;;;5.30;;
67749;SDS011;54550;48.838;8.828;2023-05-07T01:55:11;7.40;;;5.47;;
67749;SDS011;54550;48.838;8.828;2023-05-07T01:57:37;8.90;;;5.60;;
67749;SDS011;54550;48.838;8.828;2023-05-07T02:00:03;12.43;;;5.97;;
67749;SDS011;54550;48.838;8.828;2023-05-07T02:02:30;6.40;;;5.30;;
67749;SDS011;54550;48.838;8.828;2023-05-07T02:04:55;16.43;;;6.00;;
67749;SDS011;54550;48.838;8.828;2023-05-07T02:07:21;6.07;;;5.13;;
67749;SDS011;54550;48.838;8.828;2023-05-07T02:09:47;7.60;;;5.60;;
67749;SDS011;54550;48.838;8.828;2023-05-07T02:12:12;7.97;;;4.50;;
67749;SDS011;54550;48.838;8.828;2023-05-07T02:14:38;6.03;;;4.73;;
67749;SDS011;54550;48.838;8.828;2023-05-07T02:17:03;7.33;;;5.03;;
67749;SDS011;54550;48.838;8.828;2023-05-07T02:19:29;8.87;;;6.23;;
67749;SDS011;54550;48.838;8.828;2023-05-07T02:21:54;8.10;;;5.27;;
67749;SDS011;54550;48.838;8.828;2023-05-07T02:24:20;5.90;;;4.40;;
67749;SDS011;54550;48.838;8.828;2023-05-07T02:26:46;5.10;;;4.40;;
67749;SDS011;54550;48.838;8.828;2023-05-07T02:29:11;12.77;;;4.87;;
67749;SDS011;54550;48.838;8.828;2023-05-07T02:31:37;10.20;;;4.47;;
67749;SDS011;54550;48.838;8.828;2023-05-07T02:34:03;5.17;;;4.67;;
67749;SDS011;54550;48.838;8.828;2023-05-07T02:36:28;5.17;;;4.50;;
67749;SDS011;54550;48.838;8.828;2023-05-07T02:38:54;8.87;;;4.23;;
67749;SDS011;54550;48.838;8.828;2023-05-07T02:41:20;8.73;;;5.13;;
67749;SDS011;54550;48.838;8.828;2023-05-07T02:43:45;5.97;;;5.37;;
67749;SDS011;54550;48.838;8.828;2023-05-07T02:46:11;5.13;;;4.63;;
67749;SDS011;54550;48.838;8.828;2023-05-07T02:48:37;7.43;;;4.70;;
67749;SDS011;54550;48.838;8.828;2023-05-07T02:51:02;9.23;;;5.13;;
67749;SDS011;54550;48.838;8.828;2023-05-07T02:53:30;7.93;;;5.00;;
67749;SDS011;54550;48.838;8.828;2023-05-07T02:55:56;10.50;;;5.23;;
67749;SDS011;54550;48.838;8.828;2023-05-07T02:58:23;14.47;;;4.90;;
67749;SDS011;54550;48.838;8.828;2023-05-07T03:00:49;5.87;;;4.80;;
67749;SDS011;54550;48.838;8.828;2023-05-07T03:03:15;9.70;;;5.93;;
67749;SDS011;54550;48.838;8.828;2023-05-07T03:05:40;9.37;;;5.23;;
67749;SDS011;54550;48.838;8.828;2023-05-07T03:08:06;5.60;;;5.07;;
67749;SDS011;54550;48.838;8.828;2023-05-07T03:10:32;9.40;;;5.17;;
67749;SDS011;54550;48.838;8.828;2023-05-07T03:12:58;7.30;;;5.47;;
67749;SDS011;54550;48.838;8.828;2023-05-07T03:15:24;14.50;;;6.30;;
67749;SDS011;54550;48.838;8.828;2023-05-07T03:17:49;8.30;;;6.20;;
67749;SDS011;54550;48.838;8.828;2023-05-07T03:20:15;6.60;;;5.40;;
67749;SDS011;54550;48.838;8.828;2023-05-07T03:22:41;7.47;;;6.40;;
67749;SDS011;54550;48.838;8.828;2023-05-07T03:25:07;7.27;;;5.80;;
67749;SDS011;54550;48.838;8.828;2023-05-07T03:27:33;11.60;;;7.03;;
67749;SDS011;54550;48.838;8.828;2023-05-07T03:29:59;11.37;;;6.83;;
67749;SDS011;54550;48.838;8.828;2023-05-07T03:32:25;8.57;;;6.70;;
67749;SDS011;54550;48.838;8.828;2023-05-07T03:34:51;8.97;;;6.60;;
67749;SDS011;54550;48.838;8.828;2023-05-07T03:37:16;11.47;;;7.00;;
67749;SDS011;54550;48.838;8.828;2023-05-07T03:39:42;11.03;;;5.90;;
67749;SDS011;54550;48.838;8.828;2023-05-07T03:42:07;8.67;;;6.87;;
67749;SDS011;54550;48.838;8.828;2023-05-07T03:44:33;7.60;;;6.50;;
67749;SDS011;54550;48.838;8.828;2023-05-07T03:46:58;8.70;;;5.50;;
67749;SDS011;54550;48.838;8.828;2023-05-07T03:49:24;12.07;;;6.20;;
67749;SDS011;54550;48.838;8.828;2023-05-07T03:51:50;12.20;;;6.20;;
67749;SDS011;54550;48.838;8.828;2023-05-07T03:54:15;5.43;;;4.93;;
67749;SDS011;54550;48.838;8.828;2023-05-07T03:56:41;17.70;;;5.70;;
67749;SDS011;54550;48.838;8.828;2023-05-07T03:59:06;15.03;;;5.20;;
67749;SDS011;54550;48.838;8.828;2023-05-07T04:01:32;10.53;;;5.33;;
67749;SDS011;54550;48.838;8.828;2023-05-07T04:03:58;8.23;;;5.33;;
67749;SDS011;54550;48.838;8.828;2023-05-07T04:06:23;8.13;;;6.03;;
67749;SDS011;54550;48.838;8.828;2023-05-07T04:08:49;13.33;;;6.30;;
67749;SDS011;54550;48.838;8.828;2023-05-07T04:11:14;10.13;;;6.50;;
67749;SDS011;54550;48.838;8.828;2023-05-07T04:13:40;7.90;;;5.00;;
67749;SDS011;54550;48.838;8.828;2023-05-07T04:16:06;6.90;;;5.80;;
67749;SDS011;54550;48.838;8.828;2023-05-07T04:18:31;6.60;;;5.20;;
67749;SDS011;54550;48.838;8.828;2023-05-07T04:20:57;19.30;;;5.17;;
67749;SDS011;54550;48.838;8.828;2023-05-07T04:23:22;12.53;;;6.20;;
67749;SDS011;54550;48.838;8.828;2023-05-07T04:25:48;6.87;;;4.50;;
67749;SDS011;54550;48.838;8.828;2023-05-07T04:28:13;7.37;;;5.23;;
67749;SDS011;54550;48.838;8.828;2023-05-07T04:30:39;12.73;;;5.40;;
67749;SDS011;54550;48.838;8.828;2023-05-07T04:33:06;6.37;;;5.20;;
67749;SDS011;54550;48.838;8.828;2023-05-07T04:35:32;9.50;;;4.20;;
67749;SDS011;54550;48.838;8.828;2023-05-07T04:37:57;6.30;;;4.47;;
67749;SDS011;54550;48.838;8.828;2023-05-07T04:40:23;6.27;;;4.30;;
67749;SDS011;54550;48.838;8.828;2023-05-07T04:42:49;9.13;;;3.67;;
67749;SDS011;54550;48.838;8.828;2023-05-07T04:45:14;4.93;;;3.50;;
67749;SDS011;54550;48.838;8.828;2023-05-07T04:47:40;5.80;;;3.60;;
67749;SDS011;54550;48.838;8.828;2023-05-07T04:50:08;4.90;;;3.80;;
67749;SDS011;54550;48.838;8.828;2023-05-07T04:52:34;4.50;;;3.23;;
67749;SDS011;54550;48.838;8.828;2023-05-07T04:55:00;6.37;;;4.37;;
67749;SDS011;54550;48.838;8.828;2023-05-07T04:57:26;5.10;;;3.87;;
67749;SDS011;54550;48.838;8.828;2023-05-07T04:59:52;7.07;;;4.10;;
67749;SDS011;54550;48.838;8.828;2023-05-07T05:02:18;6.23;;;3.90;;
67749;SDS011;54550;48.838;8.828;2023-05-07T05:04:44;5.23;;;4.40;;
67749;SDS011;54550;48.838;8.828;2023-05-07T05:07:10;7.33;;;3.73;;
67749;SDS011;54550;48.838;8.828;2023-05-07T05:09:35;4.10;;;3.53;;
67749;SDS011;54550;48.838;8.828;2023-05-07T05:12:01;3.40;;;3.10;;
67749;SDS011;54550;48.838;8.828;2023-05-07T05:14:26;12.20;;;3.30;;
67749;SDS011;54550;48.838;8.828;2023-05-07T05:16:52;6.03;;;3.80;;
67749;SDS011;54550;48.838;8.828;2023-05-07T05:19:17;4.60;;;3.87;;
67749;SDS011;54550;48.838;8.828;2023-05-07T05:21:43;6.23;;;4.00;;
67749;SDS011;54550;48.838;8.828;2023-05-07T05:24:09;7.37;;;3.80;;
67749;SDS011;54550;48.838;8.828;2023-05-07T05:26:34;5.80;;;3.40;;
67749;SDS011;54550;48.838;8.828;2023-05-07T05:29:00;3.53;;;2.80;;
67749;SDS011;54550;48.838;8.828;2023-05-07T05:31:25;3.80;;;2.93;;
67749;SDS011;54550;48.838;8.828;2023-05-07T05:33:51;3.30;;;2.40;;
67749;SDS011;54550;48.838;8.828;2023-05-07T05:36:17;4.83;;;2.70;;
67749;SDS011;54550;48.838;8.828;2023-05-07T05:38:42;4.67;;;2.10;;
67749;SDS011;54550;48.838;8.828;2023-05-07T05:41:09;3.73;;;2.20;;
67749;SDS011;54550;48.838;8.828;2023-05-07T05:43:35;3.83;;;2.93;;
67749;SDS011;54550;48.838;8.828;2023-05-07T05:46:00;8.80;;;4.23;;
67749;SDS011;54550;48.838;8.828;2023-05-07T05:48:26;4.53;;;2.10;;
67749;SDS011;54550;48.838;8.828;2023-05-07T05:50:52;4.30;;;2.20;;
67749;SDS011;54550;48.838;8.828;2023-05-07T05:53:17;3.23;;;2.40;;
67749;SDS011;54550;48.838;8.828;2023-05-07T05:55:43;4.70;;;2.70;;
67749;SDS011;54550;48.838;8.828;2023-05-07T05:58:09;10.10;;;2.47;;
67749;SDS011;54550;48.838;8.828;2023-05-07T06:00:34;1.93;;;1.60;;
67749;SDS011;54550;48.838;8.828;2023-05-07T06:03:00;2.70;;;2.10;;
67749;SDS011;54550;48.838;8.828;2023-05-07T06:05:26;7.00;;;2.80;;
67749;SDS011;54550;48.838;8.828;2023-05-07T06:07:51;3.63;;;2.17;;
67749;SDS011;54550;48.838;8.828;2023-05-07T06:10:17;2.40;;;2.10;;
67749;SDS011;54550;48.838;8.828;2023-05-07T06:12:43;3.40;;;2.10;;
67749;SDS011;54550;48.838;8.828;2023-05-07T06:15:09;3.17;;;2.27;;
67749;SDS011;54550;48.838;8.828;2023-05-07T06:17:35;3.80;;;2.30;;
67749;SDS011;54550;48.838;8.828;2023-05-07T06:20:00;6.30;;;2.20;;
67749;SDS011;54550;48.838;8.828;2023-05-07T06:22:26;3.40;;;2.13;;
67749;SDS011;54550;48.838;8.828;2023-05-07T06:24:52;4.33;;;2.53;;
67749;SDS011;54550;48.838;8.828;2023-05-07T06:27:17;3.20;;;2.40;;
67749;SDS011;54550;48.838;8.828;2023-05-07T06:29:43;4.50;;;2.40;;
67749;SDS011;54550;48.838;8.828;2023-05-07T06:32:09;7.13;;;1.97;;
67749;SDS011;54550;48.838;8.828;2023-05-07T06:34:35;5.17;;;3.03;;
67749;SDS011;54550;48.838;8.828;2023-05-07T06:37:02;3.07;;;2.37;;
67749;SDS011;54550;48.838;8.828;2023-05-07T06:39:27;8.50;;;2.40;;
67749;SDS011;54550;48.838;8.828;2023-05-07T06:41:53;3.83;;;2.73;;
67749;SDS011;54550;48.838;8.828;2023-05-07T06:44:19;3.50;;;2.40;;
67749;SDS011;54550;48.838;8.828;2023-05-07T06:46:44;6.27;;;2.47;;
67749;SDS011;54550;48.838;8.828;2023-05-07T06:49:11;3.20;;;2.33;;
67749;SDS011;54550;48.838;8.828;2023-05-07T06:51:38;2.60;;;2.40;;
67749;SDS011;54550;48.838;8.828;2023-05-07T06:54:03;26.70;;;3.00;;
67749;SDS011;54550;48.838;8.828;2023-05-07T06:56:29;7.57;;;2.50;;
67749;SDS011;54550;48.838;8.828;2023-05-07T06:58:59;12.53;;;2.67;;
67749;SDS011;54550;48.838;8.828;2023-05-07T07:01:25;3.20;;;2.63;;
67749;SDS011;54550;48.838;8.828;2023-05-07T07:03:51;6.50;;;2.87;;
67749;SDS011;54550;48.838;8.828;2023-05-07T07:06:17;2.60;;;1.97;;
67749;SDS011;54550;48.838;8.828;2023-05-07T07:08:42;3.13;;;2.53;;
67749;SDS011;54550;48.838;8.828;2023-05-07T07:11:09;2.80;;;2.40;;
67749;SDS011;54550;48.838;8.828;2023-05-07T07:13:35;5.53;;;2.33;;
67749;SDS011;54550;48.838;8.828;2023-05-07T07:16:00;5.10;;;3.00;;
67749;SDS011;54550;48.838;8.828;2023-05-07T07:18:26;2.40;;;2.20;;
67749;SDS011;54550;48.838;8.828;2023-05-07T07:20:52;4.70;;;2.30;;
67749;SDS011;54550;48.838;8.828;2023-05-07T07:23:18;7.20;;;2.23;;
67749;SDS011;54550;48.838;8.828;2023-05-07T07:25:43;2.97;;;2.67;;
67749;SDS011;54550;48.838;8.828;2023-05-07T07:28:09;3.27;;;2.07;;
67749;SDS011;54550;48.838;8.828;2023-05-07T07:30:35;4.03;;;2.90;;
67749;SDS011;54550;48.838;8.828;2023-05-07T07:33:02;2.63;;;2.20;;
67749;SDS011;54550;48.838;8.828;2023-05-07T07:35:28;5.43;;;2.40;;
67749;SDS011;54550;48.838;8.828;2023-05-07T07:37:54;4.27;;;2.83;;
67749;SDS011;54550;48.838;8.828;2023-05-07T07:40:20;10.63;;;3.23;;
67749;SDS011;54550;48.838;8.828;2023-05-07T07:42:46;7.47;;;2.70;;
67749;SDS011;54550;48.838;8.828;2023-05-07T07:45:11;5.60;;;3.10;;
67749;SDS011;54550;48.838;8.828;2023-05-07T07:47:37;4.73;;;3.00;;
67749;SDS011;54550;48.838;8.828;2023-05-07T07:50:03;6.23;;;2.70;;
67749;SDS011;54550;48.838;8.828;2023-05-07T07:52:30;4.33;;;3.20;;
67749;SDS011;54550;48.838;8.828;2023-05-07T07:54:56;13.70;;;3.47;;
67749;SDS011;54550;48.838;8.828;2023-05-07T07:57:21;4.83;;;3.20;;
67749;SDS011;54550;48.838;8.828;2023-05-07T07:59:47;4.50;;;2.97;;
67749;SDS011;54550;48.838;8.828;2023-05-07T08:02:12;3.50;;;2.90;;
67749;SDS011;54550;48.838;8.828;2023-05-07T08:04:38;5.93;;;3.27;;
67749;SDS011;54550;48.838;8.828;2023-05-07T08:07:03;4.30;;;2.73;;
67749;SDS011;54550;48.838;8.828;2023-05-07T08:09:29;4.53;;;3.10;;
67749;SDS011;54550;48.838;8.828;2023-05-07T08:11:55;5.73;;;3.13;;
67749;SDS011;54550;48.838;8.828;2023-05-07T08:14:20;4.43;;;2.93;;
67749;SDS011;54550;48.838;8.828;2023-05-07T08:16:46;9.13;;;3.83;;
67749;SDS011;54550;48.838;8.828;2023-05-07T08:19:12;2.97;;;2.60;;
67749;SDS011;54550;48.838;8.828;2023-05-07T08:21:38;4.57;;;3.07;;
67749;SDS011;54550;48.838;8.828;2023-05-07T08:24:05;3.47;;;3.17;;
67749;SDS011;54550;48.838;8.828;2023-05-07T08:26:31;7.07;;;3.10;;
67749;SDS011;54550;48.838;8.828;2023-05-07T08:28:56;5.13;;;2.93;;
67749;SDS011;54550;48.838;8.828;2023-05-07T08:31:22;4.53;;;2.73;;
67749;SDS011;54550;48.838;8.828;2023-05-07T08:33:47;7.17;;;3.17;;
67749;SDS011;54550;48.838;8.828;2023-05-07T08:36:13;3.17;;;2.73;;
67749;SDS011;54550;48.838;8.828;2023-05-07T08:38:39;4.30;;;2.80;;
67749;SDS011;54550;48.838;8.828;2023-05-07T08:41:09;4.97;;;2.20;;
67749;SDS011;54550;48.838;8.828;2023-05-07T08:43:35;4.63;;;2.33;;
67749;SDS011;54550;48.838;8.828;2023-05-07T08:46:02;3.10;;;2.10;;
67749;SDS011;54550;48.838;8.828;2023-05-07T08:48:30;3.83;;;2.00;;
67749;SDS011;54550;48.838;8.828;2023-05-07T08:50:57;4.13;;;2.30;;
67749;SDS011;54550;48.838;8.828;2023-05-07T08:53:24;4.70;;;2.60;;
67749;SDS011;54550;48.838;8.828;2023-05-07T08:55:50;2.63;;;1.70;;
67749;SDS011;54550;48.838;8.828;2023-05-07T08:58:17;5.00;;;1.67;;
67749;SDS011;54550;48.838;8.828;2023-05-07T09:00:43;1.67;;;1.30;;
67749;SDS011;54550;48.838;8.828;2023-05-07T09:03:08;7.90;;;1.80;;
67749;SDS011;54550;48.838;8.828;2023-05-07T09:05:37;3.33;;;2.07;;
67749;SDS011;54550;48.838;8.828;2023-05-07T09:08:03;14.77;;;2.60;;
67749;SDS011;54550;48.838;8.828;2023-05-07T09:10:29;4.67;;;1.83;;
67749;SDS011;54550;48.838;8.828;2023-05-07T09:12:58;2.73;;;1.90;;
67749;SDS011;54550;48.838;8.828;2023-05-07T09:15:24;4.17;;;1.50;;
67749;SDS011;54550;48.838;8.828;2023-05-07T09:17:50;3.13;;;2.13;;
67749;SDS011;54550;48.838;8.828;2023-05-07T09:20:15;2.70;;;1.83;;
67749;SDS011;54550;48.838;8.828;2023-05-07T09:22:41;4.63;;;2.13;;
67749;SDS011;54550;48.838;8.828;2023-05-07T09:25:09;2.33;;;1.40;;
67749;SDS011;54550;48.838;8.828;2023-05-07T09:27:36;12.80;;;2.40;;
67749;SDS011;54550;48.838;8.828;2023-05-07T09:30:05;2.90;;;1.80;;
67749;SDS011;54550;48.838;8.828;2023-05-07T09:32:34;3.93;;;2.00;;
67749;SDS011;54550;48.838;8.828;2023-05-07T09:35:02;2.87;;;1.60;;
67749;SDS011;54550;48.838;8.828;2023-05-07T09:37:28;2.60;;;2.40;;
67749;SDS011;54550;48.838;8.828;2023-05-07T09:39:56;5.03;;;2.03;;
67749;SDS011;54550;48.838;8.828;2023-05-07T09:42:25;4.30;;;1.87;;
67749;SDS011;54550;48.838;8.828;2023-05-07T09:44:53;2.37;;;1.90;;
67749;SDS011;54550;48.838;8.828;2023-05-07T09:47:19;9.77;;;2.03;;
67749;SDS011;54550;48.838;8.828;2023-05-07T09:49:48;3.00;;;1.90;;
67749;SDS011;54550;48.838;8.828;2023-05-07T09:52:14;8.80;;;1.63;;
67749;SDS011;54550;48.838;8.828;2023-05-07T09:54:41;11.63;;;2.33;;
67749;SDS011;54550;48.838;8.828;2023-05-07T09:57:09;3.97;;;2.13;;
67749;SDS011;54550;48.838;8.828;2023-05-07T09:59:37;2.70;;;1.90;;
67749;SDS011;54550;48.838;8.828;2023-05-07T10:02:03;2.87;;;2.03;;
67749;SDS011;54550;48.838;8.828;2023-05-07T10:04:31;3.20;;;1.80;;
67749;SDS011;54550;48.838;8.828;2023-05-07T10:06:57;6.57;;;2.07;;
67749;SDS011;54550;48.838;8.828;2023-05-07T10:09:23;12.13;;;3.63;;
67749;SDS011;54550;48.838;8.828;2023-05-07T10:11:50;3.00;;;1.93;;
67749;SDS011;54550;48.838;8.828;2023-05-07T10:14:17;4.73;;;2.90;;
67749;SDS011;54550;48.838;8.828;2023-05-07T10:16:44;2.33;;;1.73;;
67749;SDS011;54550;48.838;8.828;2023-05-07T10:19:10;4.57;;;2.10;;
67749;SDS011;54550;48.838;8.828;2023-05-07T10:21:36;8.87;;;2.30;;
67749;SDS011;54550;48.838;8.828;2023-05-07T10:24:06;2.90;;;2.00;;
67749;SDS011;54550;48.838;8.828;2023-05-07T10:26:38;3.53;;;1.80;;
67749;SDS011;54550;48.838;8.828;2023-05-07T10:34:35;4.67;;;2.20;;
67749;SDS011;54550;48.838;8.828;2023-05-07T10:37:03;6.97;;;2.53;;
67749;SDS011;54550;48.838;8.828;2023-05-07T10:39:30;6.73;;;2.57;;
67749;SDS011;54550;48.838;8.828;2023-05-07T10:41:56;6.17;;;5.03;;
67749;SDS011;54550;48.838;8.828;2023-05-07T10:44:28;3.63;;;3.13;;
67749;SDS011;54550;48.838;8.828;2023-05-07T10:47:10;5.37;;;3.27;;
67749;SDS011;54550;48.838;8.828;2023-05-07T10:52:12;7.03;;;3.30;;
67749;SDS011;54550;48.838;8.828;2023-05-07T10:54:39;7.57;;;2.70;;
67749;SDS011;54550;48.838;8.828;2023-05-07T10:59:55;7.67;;;3.80;;
67749;SDS011;54550;48.838;8.828;2023-05-07T11:02:21;3.37;;;3.07;;
67749;SDS011;54550;48.838;8.828;2023-05-07T11:05:32;14.03;;;3.27;;
67749;SDS011;54550;48.838;8.828;2023-05-07T11:07:53;7.17;;;3.30;;
67749;SDS011;54550;48.838;8.828;2023-05-07T11:10:20;9.23;;;2.87;;
67749;SDS011;54550;48.838;8.828;2023-05-07T11:12:50;11.20;;;3.63;;
67749;SDS011;54550;48.838;8.828;2023-05-07T11:15:33;3.67;;;3.00;;
67749;SDS011;54550;48.838;8.828;2023-05-07T11:18:00;5.27;;;3.47;;
67749;SDS011;54550;48.838;8.828;2023-05-07T11:26:05;5.40;;;3.57;;
67749;SDS011;54550;48.838;8.828;2023-05-07T11:28:31;4.23;;;3.00;;
67749;SDS011;54550;48.838;8.828;2023-05-07T11:31:07;5.30;;;3.63;;
67749;SDS011;54550;48.838;8.828;2023-05-07T11:33:34;19.43;;;3.47;;
67749;SDS011;54550;48.838;8.828;2023-05-07T11:36:00;5.60;;;4.23;;
67749;SDS011;54550;48.838;8.828;2023-05-07T11:38:29;4.97;;;3.30;;
67749;SDS011;54550;48.838;8.828;2023-05-07T11:40:58;4.80;;;3.50;;
67749;SDS011;54550;48.838;8.828;2023-05-07T11:43:29;7.60;;;3.40;;
67749;SDS011;54550;48.838;8.828;2023-05-07T11:45:58;7.13;;;3.87;;
67749;SDS011;54550;48.838;8.828;2023-05-07T11:48:33;5.17;;;3.47;;
67749;SDS011;54550;48.838;8.828;2023-05-07T11:53:35;4.17;;;3.43;;
67749;SDS011;54550;48.838;8.828;2023-05-07T11:56:08;5.90;;;3.77;;
67749;SDS011;54550;48.838;8.828;2023-05-07T11:58:35;5.83;;;3.57;;
67749;SDS011;54550;48.838;8.828;2023-05-07T12:01:01;4.10;;;3.00;;
67749;SDS011;54550;48.838;8.828;2023-05-07T12:03:27;8.23;;;4.20;;
67749;SDS011;54550;48.838;8.828;2023-05-07T12:05:52;11.23;;;3.07;;
67749;SDS011;54550;48.838;8.828;2023-05-07T12:08:19;3.90;;;3.13;;
67749;SDS011;54550;48.838;8.828;2023-05-07T12:10:46;4.80;;;3.17;;
67749;SDS011;54550;48.838;8.828;2023-05-07T12:15:57;5.10;;;2.87;;
67749;SDS011;54550;48.838;8.828;2023-05-07T12:18:23;4.20;;;3.43;;
67749;SDS011;54550;48.838;8.828;2023-05-07T12:20:49;5.80;;;3.83;;
67749;SDS011;54550;48.838;8.828;2023-05-07T12:23:15;4.20;;;2.93;;
67749;SDS011;54550;48.838;8.828;2023-05-07T12:25:42;8.53;;;4.50;;
67749;SDS011;54550;48.838;8.828;2023-05-07T12:28:18;4.63;;;3.00;;
67749;SDS011;54550;48.838;8.828;2023-05-07T12:30:47;5.60;;;3.50;;
67749;SDS011;54550;48.838;8.828;2023-05-07T12:33:18;5.50;;;3.00;;
67749;SDS011;54550;48.838;8.828;2023-05-07T12:35:48;5.23;;;3.53;;
67749;SDS011;54550;48.838;8.828;2023-05-07T12:38:15;6.17;;;3.63;;
67749;SDS011;54550;48.838;8.828;2023-05-07T12:40:46;8.80;;;3.93;;
67749;SDS011;54550;48.838;8.828;2023-05-07T12:43:25;15.97;;;4.10;;
67749;SDS011;54550;48.838;8.828;2023-05-07T12:45:55;5.50;;;2.70;;
67749;SDS011;54550;48.838;8.828;2023-05-07T12:48:22;5.70;;;2.30;;
67749;SDS011;54550;48.838;8.828;2023-05-07T12:50:49;9.40;;;3.40;;
67749;SDS011;54550;48.838;8.828;2023-05-07T12:53:15;6.60;;;2.33;;
67749;SDS011;54550;48.838;8.828;2023-05-07T12:55:41;13.73;;;3.10;;
67749;SDS011;54550;48.838;8.828;2023-05-07T12:58:15;6.10;;;2.77;;
67749;SDS011;54550;48.838;8.828;2023-05-07T13:00:51;5.50;;;2.57;;
67749;SDS011;54550;48.838;8.828;2023-05-07T13:03:27;2.80;;;1.77;;
67749;SDS011;54550;48.838;8.828;2023-05-07T13:05:55;6.20;;;4.77;;
67749;SDS011;54550;48.838;8.828;2023-05-07T13:08:27;16.00;;;7.40;;
67749;SDS011;54550;48.838;8.828;2023-05-07T13:10:53;16.57;;;11.57;;
67749;SDS011;54550;48.838;8.828;2023-05-07T13:13:19;7.00;;;5.53;;
67749;SDS011;54550;48.838;8.828;2023-05-07T13:15:45;6.60;;;4.00;;
67749;SDS011;54550;48.838;8.828;2023-05-07T13:18:12;3.30;;;3.00;;
67749;SDS011;54550;48.838;8.828;2023-05-07T13:20:37;4.40;;;1.97;;
67749;SDS011;54550;48.838;8.828;2023-05-07T13:23:03;4.30;;;2.37;;
67749;SDS011;54550;48.838;8.828;2023-05-07T13:25:29;5.60;;;1.77;;
67749;SDS011;54550;48.838;8.828;2023-05-07T13:27:56;1.60;;;1.50;;
67749;SDS011;54550;48.838;8.828;2023-05-07T13:30:22;1.87;;;1.23;;
67749;SDS011;54550;48.838;8.828;2023-05-07T13:32:48;4.90;;;1.13;;
67749;SDS011;54550;48.838;8.828;2023-05-07T13:35:14;1.90;;;1.37;;
67749;SDS011;54550;48.838;8.828;2023-05-07T13:37:40;4.03;;;1.70;;
67749;SDS011;54550;48.838;8.828;2023-05-07T13:40:06;2.10;;;1.43;;
67749;SDS011;54550;48.838;8.828;2023-05-07T13:42:31;12.17;;;2.30;;
67749;SDS011;54550;48.838;8.828;2023-05-07T13:44:57;4.13;;;1.90;;
67749;SDS011;54550;48.838;8.828;2023-05-07T13:47:23;2.90;;;1.50;;
67749;SDS011;54550;48.838;8.828;2023-05-07T13:49:48;8.47;;;1.47;;
67749;SDS011;54550;48.838;8.828;2023-05-07T13:52:16;1.43;;;1.33;;
67749;SDS011;54550;48.838;8.828;2023-05-07T13:54:42;3.03;;;1.60;;
67749;SDS011;54550;48.838;8.828;2023-05-07T13:57:08;9.93;;;1.67;;
67749;SDS011;54550;48.838;8.828;2023-05-07T13:59:33;3.77;;;1.50;;
67749;SDS011;54550;48.838;8.828;2023-05-07T14:01:59;5.93;;;2.00;;
67749;SDS011;54550;48.838;8.828;2023-05-07T14:04:25;2.10;;;1.90;;
67749;SDS011;54550;48.838;8.828;2023-05-07T14:06:50;15.87;;;2.30;;
67749;SDS011;54550;48.838;8.828;2023-05-07T14:09:16;15.03;;;2.77;;
67749;SDS011;54550;48.838;8.828;2023-05-07T14:11:42;12.03;;;2.70;;
67749;SDS011;54550;48.838;8.828;2023-05-07T14:14:07;6.00;;;2.60;;
67749;SDS011;54550;48.838;8.828;2023-05-07T14:16:35;11.70;;;3.30;;
67749;SDS011;54550;48.838;8.828;2023-05-07T14:19:02;3.20;;;2.20;;
67749;SDS011;54550;48.838;8.828;2023-05-07T14:21:27;8.63;;;3.33;;
67749;SDS011;54550;48.838;8.828;2023-05-07T14:23:53;7.70;;;2.83;;
67749;SDS011;54550;48.838;8.828;2023-05-07T14:26:18;2.40;;;2.20;;
67749;SDS011;54550;48.838;8.828;2023-05-07T14:28:45;3.97;;;2.23;;
67749;SDS011;54550;48.838;8.828;2023-05-07T14:31:11;5.03;;;2.40;;
67749;SDS011;54550;48.838;8.828;2023-05-07T14:33:37;4.47;;;2.70;;
67749;SDS011;54550;48.838;8.828;2023-05-07T14:36:03;3.00;;;2.40;;
67749;SDS011;54550;48.838;8.828;2023-05-07T14:38:29;4.47;;;2.07;;
67749;SDS011;54550;48.838;8.828;2023-05-07T14:40:57;4.70;;;2.70;;
67749;SDS011;54550;48.838;8.828;2023-05-07T14:43:23;4.10;;;2.23;;
67749;SDS011;54550;48.838;8.828;2023-05-07T14:45:50;3.50;;;2.00;;
67749;SDS011;54550;48.838;8.828;2023-05-07T14:48:15;4.17;;;3.00;;
67749;SDS011;54550;48.838;8.828;2023-05-07T14:50:41;7.80;;;2.40;;
67749;SDS011;54550;48.838;8.828;2023-05-07T14:53:07;12.70;;;2.30;;
67749;SDS011;54550;48.838;8.828;2023-05-07T14:55:33;4.43;;;2.70;;
67749;SDS011;54550;48.838;8.828;2023-05-07T14:57:59;2.47;;;2.27;;
67749;SDS011;54550;48.838;8.828;2023-05-07T15:00:25;5.80;;;2.50;;
67749;SDS011;54550;48.838;8.828;2023-05-07T15:02:51;4.90;;;2.50;;